createdAt,value
2018-11-11T00:00:22.524Z,11.00
2018-11-11T00:02:53.048Z,11.00
2018-11-11T00:05:22.379Z,10.90
2018-11-11T00:07:51.699Z,10.90
2018-11-11T00:10:21.064Z,10.90
2018-11-11T00:12:50.467Z,10.90
2018-11-11T00:15:20.106Z,10.90
2018-11-11T00:17:49.561Z,10.90
2018-11-11T00:20:18.899Z,11.00
2018-11-11T00:22:49.066Z,11.10
2018-11-11T00:25:18.426Z,11.20
2018-11-11T00:27:47.725Z,11.30
2018-11-11T00:30:18.343Z,11.40
2018-11-11T00:32:47.695Z,11.50
2018-11-11T00:35:16.955Z,11.50
2018-11-11T00:37:46.177Z,11.50
2018-11-11T00:40:16.170Z,11.60
2018-11-11T00:42:46.017Z,11.60
2018-11-11T00:45:16.116Z,11.70
2018-11-11T00:47:46.110Z,11.70
2018-11-11T00:50:15.505Z,11.70
2018-11-11T00:52:44.774Z,11.70
2018-11-11T00:55:17.189Z,11.60
2018-11-11T00:57:46.659Z,11.70
2018-11-11T01:00:17.221Z,11.60
2018-11-11T01:02:46.785Z,11.60
2018-11-11T01:05:16.227Z,11.70
2018-11-11T01:07:45.491Z,11.70
2018-11-11T01:10:16.069Z,11.60
2018-11-11T01:12:45.785Z,11.60
2018-11-11T01:15:16.011Z,11.60
2018-11-11T01:17:45.274Z,11.60
2018-11-11T01:20:15.741Z,11.60
2018-11-11T01:22:45.709Z,11.60
2018-11-11T01:25:16.035Z,11.60
2018-11-11T01:27:45.338Z,11.60
2018-11-11T01:30:14.610Z,11.50
2018-11-11T01:32:43.875Z,11.50
2018-11-11T01:35:14.158Z,11.40
2018-11-11T01:37:43.833Z,11.40
2018-11-11T01:40:13.338Z,11.40
2018-11-11T01:42:42.603Z,11.40
2018-11-11T01:45:14.850Z,11.40
2018-11-11T01:47:44.898Z,11.40
2018-11-11T01:50:14.231Z,11.40
2018-11-11T01:52:43.607Z,11.30
2018-11-11T01:55:13.606Z,11.40
2018-11-11T01:57:42.869Z,11.40
2018-11-11T02:00:14.833Z,11.40
2018-11-11T02:02:44.761Z,11.40
2018-11-11T02:05:14.413Z,11.40
2018-11-11T02:07:44.573Z,11.40
2018-11-11T02:10:13.788Z,11.40
2018-11-11T02:12:44.880Z,11.50
2018-11-11T02:15:15.211Z,11.50
2018-11-11T02:17:44.490Z,11.50
2018-11-11T02:20:15.070Z,11.40
2018-11-11T02:22:45.105Z,11.40
2018-11-11T02:25:14.327Z,11.40
2018-11-11T02:27:43.610Z,11.30
2018-11-11T02:30:16.406Z,11.30
2018-11-11T02:32:45.838Z,11.20
2018-11-11T02:35:15.115Z,11.20
2018-11-11T02:37:44.532Z,11.20
2018-11-11T02:40:15.809Z,11.20
2018-11-11T02:42:45.351Z,11.20
2018-11-11T02:45:15.679Z,11.30
2018-11-11T02:47:45.055Z,11.30
2018-11-11T02:50:15.520Z,11.30
2018-11-11T02:52:45.281Z,11.30
2018-11-11T02:55:15.241Z,11.30
2018-11-11T02:57:45.121Z,11.30
2018-11-11T03:00:16.551Z,11.20
2018-11-11T03:02:46.432Z,11.20
2018-11-11T03:05:16.633Z,11.10
2018-11-11T03:07:45.893Z,11.10
2018-11-11T03:10:16.132Z,11.10
2018-11-11T03:12:46.475Z,11.10
2018-11-11T03:15:17.011Z,11.10
2018-11-11T03:17:46.292Z,11.10
2018-11-11T03:20:16.126Z,11.10
2018-11-11T03:22:45.467Z,11.10
2018-11-11T03:25:15.711Z,11.10
2018-11-11T03:27:45.163Z,11.10
2018-11-11T03:30:15.611Z,11.10
2018-11-11T03:32:44.865Z,11.00
2018-11-11T03:35:14.653Z,11.00
2018-11-11T03:37:44.619Z,10.90
2018-11-11T03:42:44.979Z,11.00
2018-11-11T03:45:15.552Z,11.00
2018-11-11T03:47:45.806Z,10.90
2018-11-11T03:50:15.113Z,11.00
2018-11-11T03:52:44.770Z,11.00
2018-11-11T03:55:14.009Z,11.00
2018-11-11T03:57:43.299Z,11.00
2018-11-11T04:00:14.194Z,10.90
2018-11-11T04:02:43.474Z,10.90
2018-11-11T04:05:13.884Z,10.90
2018-11-11T04:07:43.166Z,10.90
2018-11-11T04:10:14.660Z,10.90
2018-11-11T04:12:44.286Z,10.90
2018-11-11T04:15:14.874Z,10.90
2018-11-11T04:17:44.185Z,10.90
2018-11-11T04:20:14.961Z,10.90
2018-11-11T04:22:44.306Z,11.00
2018-11-11T04:25:14.220Z,11.10
2018-11-11T04:27:43.525Z,11.10
2018-11-11T04:30:13.792Z,11.20
2018-11-11T04:32:43.340Z,11.20
2018-11-11T04:35:12.898Z,11.30
2018-11-11T04:37:42.177Z,11.30
2018-11-11T04:40:12.662Z,11.30
2018-11-11T04:42:41.888Z,11.30
2018-11-11T04:45:16.091Z,11.30
2018-11-11T04:47:46.250Z,11.20
2018-11-11T04:50:16.790Z,11.10
2018-11-11T04:52:46.733Z,11.10
2018-11-11T04:57:45.138Z,11.10
2018-11-11T05:00:15.253Z,11.10
2018-11-11T05:02:44.525Z,11.00
2018-11-11T05:05:14.588Z,11.00
2018-11-11T05:07:43.781Z,11.00
2018-11-11T05:10:13.449Z,11.00
2018-11-11T05:12:42.683Z,11.00
2018-11-11T05:15:12.845Z,11.10
2018-11-11T05:17:42.103Z,11.10
2018-11-11T05:20:12.339Z,11.20
2018-11-11T05:22:41.996Z,11.30
2018-11-11T05:25:13.216Z,11.30
2018-11-11T05:27:42.725Z,11.40
2018-11-11T05:30:12.798Z,11.50
2018-11-11T05:32:42.025Z,11.40
2018-11-11T05:35:12.014Z,11.50
2018-11-11T05:37:41.734Z,11.50
2018-11-11T05:40:11.982Z,11.50
2018-11-11T05:42:41.971Z,11.50
2018-11-11T05:45:12.304Z,11.50
2018-11-11T05:47:41.822Z,11.60
2018-11-11T05:50:13.854Z,11.60
2018-11-11T05:52:44.060Z,11.70
2018-11-11T05:55:13.609Z,11.70
2018-11-11T05:57:44.817Z,11.70
2018-11-11T06:00:15.602Z,11.70
2018-11-11T06:02:45.265Z,11.60
2018-11-11T06:05:15.252Z,11.60
2018-11-11T06:07:44.487Z,11.50
2018-11-11T06:10:14.636Z,11.50
2018-11-11T06:12:43.942Z,11.40
2018-11-11T06:15:13.966Z,11.30
2018-11-11T06:17:43.211Z,11.30
2018-11-11T06:20:14.964Z,11.20
2018-11-11T06:22:44.310Z,11.20
2018-11-11T06:25:13.631Z,11.10
2018-11-11T06:27:43.016Z,11.10
2018-11-11T06:30:12.983Z,11.10
2018-11-11T06:32:42.416Z,11.10
2018-11-11T06:35:11.885Z,11.10
2018-11-11T06:37:41.446Z,11.00
2018-11-11T06:40:12.078Z,11.00
2018-11-11T06:42:41.402Z,11.00
2018-11-11T06:45:12.479Z,11.00
2018-11-11T06:47:42.392Z,11.00
2018-11-11T06:50:12.833Z,11.00
2018-11-11T06:52:42.663Z,11.00
2018-11-11T06:55:12.297Z,11.00
2018-11-11T06:57:41.597Z,11.00
2018-11-11T07:00:13.354Z,11.00
2018-11-11T07:02:58.344Z,10.90
2018-11-11T07:05:27.607Z,10.90
2018-11-11T07:07:56.905Z,11.00
2018-11-11T07:10:26.197Z,11.00
2018-11-11T07:12:55.469Z,11.00
2018-11-11T07:15:24.893Z,11.00
2018-11-11T07:17:54.157Z,11.00
2018-11-11T07:20:23.530Z,11.00
2018-11-11T07:22:52.942Z,11.00
2018-11-11T07:25:22.179Z,11.00
2018-11-11T07:27:51.551Z,11.00
2018-11-11T07:30:20.851Z,11.00
2018-11-11T07:32:50.081Z,11.00
2018-11-11T07:35:19.377Z,11.00
2018-11-11T07:37:48.606Z,11.10
2018-11-11T07:40:18.067Z,11.10
2018-11-11T07:42:47.356Z,11.20
2018-11-11T07:45:16.649Z,11.20
2018-11-11T07:47:46.047Z,11.20
2018-11-11T07:50:16.346Z,11.20
2018-11-11T07:52:45.671Z,11.20
2018-11-11T07:55:15.018Z,11.10
2018-11-11T07:57:44.265Z,11.10
2018-11-11T08:00:14.565Z,11.10
2018-11-11T08:02:44.218Z,11.00
2018-11-11T08:05:13.530Z,11.00
2018-11-11T08:07:42.799Z,11.00
2018-11-11T08:12:19.268Z,11.00
2018-11-11T08:14:48.605Z,10.90
2018-11-11T08:17:17.860Z,10.80
2018-11-11T08:19:47.084Z,10.70
2018-11-11T08:22:16.363Z,10.60
2018-11-11T08:24:45.678Z,10.60
2018-11-11T08:27:14.913Z,10.50
2018-11-11T08:29:44.161Z,10.50
2018-11-11T08:32:13.416Z,10.50
2018-11-11T08:34:42.706Z,10.60
2018-11-11T08:37:12.116Z,10.60
2018-11-11T08:39:41.408Z,10.60
2018-11-11T08:42:10.674Z,10.70
2018-11-11T08:44:39.982Z,10.90
2018-11-11T08:47:09.303Z,11.00
2018-11-11T08:49:38.648Z,11.00
2018-11-11T08:52:07.908Z,11.10
2018-11-11T08:54:37.239Z,11.10
2018-11-11T08:57:06.755Z,11.20
2018-11-11T08:59:36.084Z,11.40
2018-11-11T09:02:05.702Z,11.50
2018-11-11T09:04:35.173Z,11.60
2018-11-11T09:07:04.586Z,11.70
2018-11-11T09:09:33.922Z,11.80
2018-11-11T09:12:03.283Z,12.00
2018-11-11T09:14:32.646Z,12.20
2018-11-11T09:17:02.141Z,12.30
2018-11-11T09:19:31.588Z,12.50
2018-11-11T09:22:01.116Z,12.50
2018-11-11T09:24:30.461Z,12.50
2018-11-11T09:27:00.010Z,12.60
2018-11-11T09:29:29.519Z,12.70
2018-11-11T09:31:58.878Z,12.80
2018-11-11T09:34:28.289Z,13.00
2018-11-11T09:36:57.683Z,12.80
2018-11-11T09:39:27.198Z,12.90
2018-11-11T09:41:56.705Z,12.80
2018-11-11T09:44:25.915Z,12.80
2018-11-11T09:46:55.495Z,12.80
2018-11-11T09:49:24.861Z,13.00
2018-11-11T09:51:54.243Z,13.10
2018-11-11T09:54:23.483Z,13.20
2018-11-11T09:56:52.805Z,13.30
2018-11-11T09:59:22.149Z,13.40
2018-11-11T10:01:51.519Z,13.40
2018-11-11T10:06:33.983Z,13.40
2018-11-11T10:09:05.695Z,13.50
2018-11-11T10:11:46.972Z,13.60
2018-11-11T10:14:20.741Z,13.80
2018-11-11T10:16:55.351Z,13.90
2018-11-11T10:19:37.011Z,14.00
2018-11-11T10:22:10.514Z,14.20
2018-11-11T10:24:47.603Z,14.40
2018-11-11T10:27:26.797Z,14.50
2018-11-11T10:30:01.395Z,14.60
2018-11-11T10:32:55.243Z,14.80
2018-11-11T10:35:30.398Z,14.80
2018-11-11T10:38:04.966Z,14.90
2018-11-11T10:40:41.879Z,14.80
2018-11-11T10:43:18.930Z,14.80
2018-11-11T10:45:53.225Z,14.70
2018-11-11T10:48:25.734Z,14.70
2018-11-11T10:50:57.946Z,14.70
2018-11-11T10:53:27.262Z,14.70
2018-11-11T10:55:56.555Z,14.70
2018-11-11T10:58:26.312Z,14.80
2018-11-11T11:01:00.802Z,14.80
2018-11-11T11:03:33.577Z,14.70
2018-11-11T11:06:03.643Z,14.70
2018-11-11T11:08:33.089Z,14.80
2018-11-11T11:11:02.422Z,15.00
2018-11-11T11:13:32.051Z,15.20
2018-11-11T11:16:01.340Z,15.40
2018-11-11T11:18:30.832Z,15.60
2018-11-11T11:21:01.576Z,15.90
2018-11-11T11:23:31.309Z,16.00
2018-11-11T11:26:00.953Z,15.80
2018-11-11T11:28:30.617Z,15.60
2018-11-11T11:31:00.024Z,15.60
2018-11-11T11:33:29.557Z,15.60
2018-11-11T11:35:59.148Z,15.50
2018-11-11T11:38:28.556Z,15.50
2018-11-11T11:40:57.833Z,15.60
2018-11-11T11:43:28.820Z,15.60
2018-11-11T11:45:58.221Z,15.80
2018-11-11T11:48:27.494Z,15.70
2018-11-11T11:50:56.866Z,15.70
2018-11-11T11:53:26.180Z,15.60
2018-11-11T11:55:55.554Z,15.60
2018-11-11T11:58:26.366Z,15.60
2018-11-11T12:00:55.761Z,15.60
2018-11-11T12:03:25.232Z,15.70
2018-11-11T12:05:54.741Z,15.80
2018-11-11T12:08:24.305Z,15.80
2018-11-11T12:10:53.659Z,15.90
2018-11-11T12:13:22.994Z,15.90
2018-11-11T12:15:52.511Z,15.80
2018-11-11T12:18:22.099Z,15.80
2018-11-11T12:20:51.382Z,15.80
2018-11-11T12:23:21.016Z,15.70
2018-11-11T12:25:50.362Z,15.80
2018-11-11T12:28:19.857Z,15.80
2018-11-11T12:30:49.280Z,15.80
2018-11-11T12:33:18.603Z,15.80
2018-11-11T12:35:47.959Z,15.90
2018-11-11T12:38:17.374Z,16.00
2018-11-11T12:40:46.752Z,16.10
2018-11-11T12:43:18.183Z,16.10
2018-11-11T12:45:47.618Z,16.20
2018-11-11T12:48:16.935Z,16.10
2018-11-11T12:50:46.205Z,16.10
2018-11-11T12:53:15.551Z,16.10
2018-11-11T12:55:44.874Z,16.20
2018-11-11T12:58:14.429Z,16.20
2018-11-11T13:00:43.677Z,16.30
2018-11-11T13:03:13.035Z,16.20
2018-11-11T13:05:42.267Z,16.20
2018-11-11T13:08:11.665Z,16.20
2018-11-11T13:10:41.349Z,16.10
2018-11-11T13:13:10.720Z,16.10
2018-11-11T13:15:39.991Z,16.00
2018-11-11T13:18:10.366Z,15.90
2018-11-11T13:20:39.670Z,15.90
2018-11-11T13:23:08.905Z,15.80
2018-11-11T13:25:40.013Z,15.80
2018-11-11T13:28:09.452Z,15.80
2018-11-11T13:30:38.759Z,15.80
2018-11-11T13:33:08.271Z,15.80
2018-11-11T13:35:37.689Z,15.70
2018-11-11T13:38:07.174Z,15.60
2018-11-11T13:40:36.635Z,15.60
2018-11-11T13:43:06.173Z,15.60
2018-11-11T13:45:42.089Z,15.60
2018-11-11T13:48:11.478Z,15.60
2018-11-11T13:50:41.392Z,15.60
2018-11-11T13:53:12.753Z,15.60
2018-11-11T13:55:42.138Z,15.60
2018-11-11T13:58:11.548Z,15.70
2018-11-11T14:00:40.928Z,15.70
2018-11-11T14:03:10.290Z,15.70
2018-11-11T14:05:39.613Z,15.80
2018-11-11T14:08:08.947Z,15.80
2018-11-11T14:10:38.770Z,15.70
2018-11-11T14:13:08.047Z,15.70
2018-11-11T14:15:37.406Z,15.60
2018-11-11T14:18:07.201Z,15.70
2018-11-11T14:20:36.540Z,15.60
2018-11-11T14:23:06.165Z,15.70
2018-11-11T14:25:36.163Z,15.60
2018-11-11T14:28:06.121Z,15.60
2018-11-11T14:30:35.428Z,15.60
2018-11-11T14:33:05.499Z,15.60
2018-11-11T14:35:34.921Z,15.50
2018-11-11T14:38:04.455Z,15.50
2018-11-11T14:40:34.063Z,15.60
2018-11-11T14:43:06.765Z,15.70
2018-11-11T14:45:36.261Z,15.80
2018-11-11T14:48:05.652Z,15.90
2018-11-11T14:50:35.172Z,15.80
2018-11-11T14:53:04.790Z,15.80
2018-11-11T14:55:34.291Z,15.70
2018-11-11T14:58:03.618Z,15.50
2018-11-11T15:00:34.204Z,15.30
2018-11-11T15:03:08.955Z,15.10
2018-11-11T15:05:38.608Z,15.00
2018-11-11T15:08:08.084Z,14.80
2018-11-11T15:10:38.096Z,14.70
2018-11-11T15:13:08.459Z,14.60
2018-11-11T15:15:37.731Z,14.60
2018-11-11T15:18:07.442Z,14.50
2018-11-11T15:20:37.398Z,14.30
2018-11-11T15:23:07.113Z,14.20
2018-11-11T15:25:36.540Z,14.10
2018-11-11T15:28:06.842Z,14.00
2018-11-11T15:30:37.172Z,13.90
2018-11-11T15:33:07.074Z,13.80
2018-11-11T15:35:36.454Z,13.60
2018-11-11T15:38:06.591Z,13.50
2018-11-11T15:40:37.266Z,13.30
2018-11-11T15:43:07.029Z,13.20
2018-11-11T15:45:36.658Z,13.10
2018-11-11T15:48:06.389Z,13.00
2018-11-11T15:50:36.450Z,13.00
2018-11-11T15:53:07.793Z,13.00
2018-11-11T15:55:38.094Z,12.90
2018-11-11T15:58:07.762Z,12.90
2018-11-11T16:00:39.374Z,12.80
2018-11-11T16:03:12.953Z,12.70
2018-11-11T16:05:42.638Z,12.60
2018-11-11T16:08:12.194Z,12.60
2018-11-11T16:10:41.598Z,12.50
2018-11-11T16:13:11.031Z,12.60
2018-11-11T16:15:41.482Z,12.50
2018-11-11T16:18:12.148Z,12.40
2018-11-11T16:20:41.640Z,12.40
2018-11-11T16:23:11.410Z,12.30
2018-11-11T16:25:41.074Z,12.30
2018-11-11T16:28:10.858Z,12.20
2018-11-11T16:30:40.423Z,12.20
2018-11-11T16:33:11.156Z,12.10
2018-11-11T16:35:40.550Z,12.10
2018-11-11T16:38:13.372Z,12.10
2018-11-11T16:40:43.677Z,12.10
2018-11-11T16:43:13.086Z,11.90
2018-11-11T16:45:42.487Z,11.90
2018-11-11T16:48:11.781Z,11.90
2018-11-11T16:50:41.135Z,11.80
2018-11-11T16:53:10.618Z,11.70
2018-11-11T16:55:41.916Z,11.70
2018-11-11T16:58:11.400Z,11.70
2018-11-11T17:00:40.722Z,11.70
2018-11-11T17:03:13.434Z,11.70
2018-11-11T17:05:43.202Z,11.60
2018-11-11T17:08:12.593Z,11.60
2018-11-11T17:10:42.011Z,11.60
2018-11-11T17:13:12.790Z,11.60
2018-11-11T17:15:45.260Z,11.50
2018-11-11T17:18:14.725Z,11.50
2018-11-11T17:20:44.295Z,11.50
2018-11-11T17:23:15.611Z,11.50
2018-11-11T17:25:45.171Z,11.50
2018-11-11T17:28:14.708Z,11.50
2018-11-11T17:30:45.045Z,11.40
2018-11-11T17:33:14.473Z,11.40
2018-11-11T17:35:44.235Z,11.40
2018-11-11T17:38:13.881Z,11.40
2018-11-11T17:40:43.342Z,11.40
2018-11-11T17:43:12.786Z,11.40
2018-11-11T17:45:42.220Z,11.70
2018-11-11T17:48:15.269Z,11.90
2018-11-11T17:50:44.738Z,11.90
2018-11-11T17:53:14.243Z,11.90
2018-11-11T17:55:43.818Z,12.00
2018-11-11T17:58:13.166Z,11.90
2018-11-11T18:00:42.559Z,11.90
2018-11-11T18:03:12.040Z,11.90
2018-11-11T18:05:41.342Z,11.90
2018-11-11T18:08:10.801Z,12.00
2018-11-11T18:10:40.232Z,12.00
2018-11-11T18:13:09.685Z,12.10
2018-11-11T18:15:39.010Z,12.10
2018-11-11T18:18:08.387Z,12.10
2018-11-11T18:20:37.716Z,12.10
2018-11-11T18:23:07.015Z,12.10
2018-11-11T18:25:36.428Z,12.10
2018-11-11T18:28:06.047Z,12.00
2018-11-11T18:30:35.933Z,12.00
2018-11-11T18:33:05.376Z,12.00
2018-11-11T18:35:34.852Z,12.00
2018-11-11T18:38:04.279Z,12.00
2018-11-11T18:40:33.739Z,12.00
2018-11-11T18:43:03.029Z,11.90
2018-11-11T18:45:32.378Z,11.90
2018-11-11T18:48:01.843Z,11.80
2018-11-11T18:50:32.357Z,11.80
2018-11-11T18:53:01.986Z,11.90
2018-11-11T18:55:31.218Z,11.90
2018-11-11T18:58:00.955Z,11.90
2018-11-11T19:00:33.477Z,11.80
2018-11-11T19:03:02.763Z,11.80
2018-11-11T19:05:32.118Z,11.80
2018-11-11T19:08:01.455Z,11.90
2018-11-11T19:10:32.343Z,11.90
2018-11-11T19:13:04.046Z,11.80
2018-11-11T19:15:33.506Z,11.80
2018-11-11T19:18:02.891Z,11.80
2018-11-11T19:20:32.342Z,11.80
2018-11-11T19:23:01.784Z,11.70
2018-11-11T19:25:31.811Z,11.70
2018-11-11T19:28:02.055Z,11.70
2018-11-11T19:30:32.253Z,11.70
2018-11-11T19:33:01.557Z,11.70
2018-11-11T19:35:30.955Z,11.70
2018-11-11T19:38:02.040Z,11.80
2018-11-11T19:40:31.598Z,11.80
2018-11-11T19:43:01.768Z,11.80
2018-11-11T19:45:31.918Z,11.90
2018-11-11T19:48:01.410Z,11.90
2018-11-11T19:50:31.098Z,11.90
2018-11-11T19:53:00.880Z,11.90
2018-11-11T19:55:31.293Z,12.00
2018-11-11T19:58:03.701Z,12.00
2018-11-11T20:00:34.047Z,12.10
2018-11-11T20:03:05.448Z,12.10
2018-11-11T20:05:36.135Z,12.20
2018-11-11T20:08:05.787Z,12.30
2018-11-11T20:10:35.409Z,12.30
2018-11-11T20:13:04.899Z,12.40
2018-11-11T20:15:35.097Z,12.40
2018-11-11T20:18:04.841Z,12.40
2018-11-11T20:20:36.170Z,12.40
2018-11-11T20:23:11.203Z,12.40
2018-11-11T20:25:41.306Z,12.50
2018-11-11T20:28:11.923Z,12.50
2018-11-11T20:30:41.936Z,12.50
2018-11-11T20:33:22.546Z,12.50
2018-11-11T20:35:52.557Z,12.50
2018-11-11T20:38:23.775Z,12.40
2018-11-11T20:40:53.138Z,12.40
2018-11-11T20:43:22.880Z,12.30
2018-11-11T20:45:53.350Z,12.20
2018-11-11T20:48:22.769Z,12.10
2018-11-11T20:50:55.417Z,12.10
2018-11-11T20:53:24.912Z,12.00
2018-11-11T20:55:57.551Z,12.00
2018-11-11T20:58:28.069Z,12.00
2018-11-11T21:00:57.650Z,12.00
2018-11-11T21:03:27.031Z,11.90
2018-11-11T21:05:56.889Z,11.90
2018-11-11T21:08:26.428Z,11.80
2018-11-11T21:10:55.742Z,11.80
2018-11-11T21:13:26.668Z,11.80
2018-11-11T21:15:57.155Z,11.80
2018-11-11T21:18:26.611Z,11.80
2018-11-11T21:20:56.058Z,11.80
2018-11-11T21:23:25.566Z,11.70
2018-11-11T21:25:54.975Z,11.70
2018-11-11T21:28:24.398Z,11.70
2018-11-11T21:30:53.728Z,11.70
2018-11-11T21:33:23.272Z,11.60
2018-11-11T21:35:52.922Z,11.70
2018-11-11T21:38:25.863Z,11.70
2018-11-11T21:40:56.431Z,11.70
2018-11-11T21:43:28.762Z,11.70
2018-11-11T21:45:58.306Z,11.80
2018-11-11T21:48:27.711Z,11.80
2018-11-11T21:50:57.030Z,11.90
2018-11-11T21:53:34.063Z,12.00
2018-11-11T21:56:03.924Z,12.00
2018-11-11T21:58:33.439Z,12.00
2018-11-11T22:01:02.858Z,11.90
2018-11-11T22:03:32.362Z,11.90
2018-11-11T22:06:01.908Z,12.00
2018-11-11T22:08:31.436Z,12.00
2018-11-11T22:11:00.923Z,11.90
2018-11-11T22:13:30.490Z,11.90
2018-11-11T22:16:00.117Z,12.00
2018-11-11T22:18:29.410Z,12.10
2018-11-11T22:20:58.798Z,12.10
2018-11-11T22:23:28.214Z,12.10
2018-11-11T22:25:57.727Z,12.20
2018-11-11T22:28:27.183Z,12.20
2018-11-11T22:30:56.732Z,12.20
2018-11-11T22:33:26.162Z,12.20
2018-11-11T22:35:55.744Z,12.20
2018-11-11T22:38:25.270Z,12.30
2018-11-11T22:40:54.617Z,12.30
2018-11-11T22:43:24.122Z,12.40
2018-11-11T22:45:53.589Z,12.40
2018-11-11T22:48:22.942Z,12.40
2018-11-11T22:50:52.406Z,12.40
2018-11-11T22:53:21.779Z,12.40
2018-11-11T22:55:51.249Z,12.30
2018-11-11T22:58:20.581Z,12.30
2018-11-11T23:00:55.002Z,12.20
2018-11-11T23:03:24.297Z,12.20
2018-11-11T23:05:53.684Z,12.10
2018-11-11T23:08:22.996Z,12.10
2018-11-11T23:10:52.307Z,12.00
2018-11-11T23:13:21.610Z,12.00
2018-11-11T23:15:50.981Z,12.10
2018-11-11T23:18:20.335Z,12.10
2018-11-11T23:20:49.610Z,12.20
2018-11-11T23:23:18.911Z,12.20
2018-11-11T23:25:48.183Z,12.30
2018-11-11T23:28:17.502Z,12.40
2018-11-11T23:30:46.920Z,12.40
2018-11-11T23:33:16.263Z,12.50
2018-11-11T23:35:45.820Z,12.50
2018-11-11T23:38:15.216Z,12.60
2018-11-11T23:40:44.623Z,12.60
2018-11-11T23:43:13.945Z,12.60
2018-11-11T23:45:43.333Z,12.70
2018-11-11T23:48:12.625Z,12.80
2018-11-11T23:50:41.919Z,12.90
2018-11-11T23:53:11.246Z,12.90
2018-11-11T23:55:40.531Z,12.90
2018-11-11T23:58:09.910Z,12.90
